Aviation Digital Data Service (ADDS)

Output produced by METARs form (1318 UTC 23 January 2019)
found at http://www.aviationweather.gov/metar/data/
 
METAR text: WBGB 231300Z 06006KT 010V100 9999 -RA SCT014 BKN150 25/24 Q1012
Conditions at: WBGB (BINTULU/KALIMANT, MY) observed 1300 UTC 23 January 2019
Temperature: 25.0°C (77°F)
Dewpoint: 24.0°C (75°F) [RH = 94%]
Pressure (altimeter): 29.88 inches Hg (1012.0 mb)
Winds: from the ENE (60 degrees) at 7 MPH (6 knots; 3.1 m/s)
Visibility: 6 or more miles (10+ km)
Ceiling: 15000 feet AGL
Clouds: scattered clouds at 1400 feet AGL
broken clouds at 15000 feet AGL
Weather: -RA  (light rain)

METAR text: WBGB 231200Z 00000KT 9999 SCT014 BKN150 25/25 Q1011
Conditions at: WBGB (BINTULU/KALIMANT, MY) observed 1200 UTC 23 January 2019
Temperature: 25.0°C (77°F)
Dewpoint: 25.0°C (77°F) [RH = 100%]
Pressure (altimeter): 29.85 inches Hg (1011.0 mb)
Winds: calm
Visibility: 6 or more miles (10+ km)
Ceiling: 15000 feet AGL
Clouds: scattered clouds at 1400 feet AGL
broken clouds at 15000 feet AGL
Weather: no significant weather observed at this time

METAR text: WBGB 231100Z VRB01KT 9999 SCT014 BKN150 26/25 Q1010
Conditions at: WBGB (BINTULU/KALIMANT, MY) observed 1100 UTC 23 January 2019
Temperature: 26.0°C (79°F)
Dewpoint: 25.0°C (77°F) [RH = 94%]
Pressure (altimeter): 29.82 inches Hg (1010.0 mb)
Winds: variable direction winds at 1 MPH (1 knots; 0.5 m/s)
Visibility: 6 or more miles (10+ km)
Ceiling: 15000 feet AGL
Clouds: scattered clouds at 1400 feet AGL
broken clouds at 15000 feet AGL
Weather: no significant weather observed at this time

METAR text: WBGB 231000Z 34004KT 270V050 9999 SCT016 BKN150 27/25 Q1010
Conditions at: WBGB (BINTULU/KALIMANT, MY) observed 1000 UTC 23 January 2019
Temperature: 27.0°C (81°F)
Dewpoint: 25.0°C (77°F) [RH = 89%]
Pressure (altimeter): 29.82 inches Hg (1010.0 mb)
Winds: from the NNW (340 degrees) at 5 MPH (4 knots; 2.1 m/s)
Visibility: 6 or more miles (10+ km)
Ceiling: 15000 feet AGL
Clouds: scattered clouds at 1600 feet AGL
broken clouds at 15000 feet AGL
Weather: no significant weather observed at this time

METAR text: WBGB 230900Z VRB01KT 9999 FEW016 BKN150 26/25 Q1009
Conditions at: WBGB (BINTULU/KALIMANT, MY) observed 0900 UTC 23 January 2019
Temperature: 26.0°C (79°F)
Dewpoint: 25.0°C (77°F) [RH = 94%]
Pressure (altimeter): 29.79 inches Hg (1009.0 mb)
Winds: variable direction winds at 1 MPH (1 knots; 0.5 m/s)
Visibility: 6 or more miles (10+ km)
Ceiling: 15000 feet AGL
Clouds: few clouds at 1600 feet AGL
broken clouds at 15000 feet AGL
Weather: no significant weather observed at this time

METAR text: WBGB 230800Z 00000KT 9999 FEW016 BKN150 26/25 Q1009
Conditions at: WBGB (BINTULU/KALIMANT, MY) observed 0800 UTC 23 January 2019
Temperature: 26.0°C (79°F)
Dewpoint: 25.0°C (77°F) [RH = 94%]
Pressure (altimeter): 29.79 inches Hg (1009.0 mb)
Winds: calm
Visibility: 6 or more miles (10+ km)
Ceiling: 15000 feet AGL
Clouds: few clouds at 1600 feet AGL
broken clouds at 15000 feet AGL
Weather: no significant weather observed at this time

METAR text: WBGB 230700Z VRB02KT 9999 FEW016 BKN150 26/24 Q1009
Conditions at: WBGB (BINTULU/KALIMANT, MY) observed 0700 UTC 23 January 2019
Temperature: 26.0°C (79°F)
Dewpoint: 24.0°C (75°F) [RH = 89%]
Pressure (altimeter): 29.79 inches Hg (1009.0 mb)
Winds: variable direction winds at 2 MPH (2 knots; 1.0 m/s)
Visibility: 6 or more miles (10+ km)
Ceiling: 15000 feet AGL
Clouds: few clouds at 1600 feet AGL
broken clouds at 15000 feet AGL
Weather: no significant weather observed at this time

METAR text: WBGB 230600Z 09003KT 030V120 9999 FEW016 BKN150 26/24 Q1010
Conditions at: WBGB (BINTULU/KALIMANT, MY) observed 0600 UTC 23 January 2019
Temperature: 26.0°C (79°F)
Dewpoint: 24.0°C (75°F) [RH = 89%]
Pressure (altimeter): 29.82 inches Hg (1010.0 mb)
Winds: from the E (90 degrees) at 3 MPH (3 knots; 1.5 m/s)
Visibility: 6 or more miles (10+ km)
Ceiling: 15000 feet AGL
Clouds: few clouds at 1600 feet AGL
broken clouds at 15000 feet AGL
Weather: no significant weather observed at this time

METAR text: WBGB 230500Z VRB03KT 9999 FEW016 BKN150 27/24 Q1011
Conditions at: WBGB (BINTULU/KALIMANT, MY) observed 0500 UTC 23 January 2019
Temperature: 27.0°C (81°F)
Dewpoint: 24.0°C (75°F) [RH = 84%]
Pressure (altimeter): 29.85 inches Hg (1011.0 mb)
Winds: variable direction winds at 3 MPH (3 knots; 1.5 m/s)
Visibility: 6 or more miles (10+ km)
Ceiling: 15000 feet AGL
Clouds: few clouds at 1600 feet AGL
broken clouds at 15000 feet AGL
Weather: no significant weather observed at this time

METAR text: WBGB 230400Z 09004KT 360V160 9999 FEW016 BKN150 27/24 Q1012
Conditions at: WBGB (BINTULU/KALIMANT, MY) observed 0400 UTC 23 January 2019
Temperature: 27.0°C (81°F)
Dewpoint: 24.0°C (75°F) [RH = 84%]
Pressure (altimeter): 29.88 inches Hg (1012.0 mb)
Winds: from the E (90 degrees) at 5 MPH (4 knots; 2.1 m/s)
Visibility: 6 or more miles (10+ km)
Ceiling: 15000 feet AGL
Clouds: few clouds at 1600 feet AGL
broken clouds at 15000 feet AGL
Weather: no significant weather observed at this time

METAR text: WBGB 230300Z 08005KT 020V140 9999 FEW005 SCT016 BKN150 26/23 Q1013
Conditions at: WBGB (BINTULU/KALIMANT, MY) observed 0300 UTC 23 January 2019
Temperature: 26.0°C (79°F)
Dewpoint: 23.0°C (73°F) [RH = 84%]
Pressure (altimeter): 29.91 inches Hg (1013.0 mb)
Winds: from the E (80 degrees) at 6 MPH (5 knots; 2.6 m/s)
Visibility: 6 or more miles (10+ km)
Ceiling: 15000 feet AGL
Clouds: few clouds at 500 feet AGL
scattered clouds at 1600 feet AGL
broken clouds at 15000 feet AGL
Weather: no significant weather observed at this time

METAR text: WBGB 230200Z VRB02KT 9999 -RA FEW005 SCT016 OVC140 24/23 Q1013
Conditions at: WBGB (BINTULU/KALIMANT, MY) observed 0200 UTC 23 January 2019
Temperature: 24.0°C (75°F)
Dewpoint: 23.0°C (73°F) [RH = 94%]
Pressure (altimeter): 29.91 inches Hg (1013.0 mb)
Winds: variable direction winds at 2 MPH (2 knots; 1.0 m/s)
Visibility: 6 or more miles (10+ km)
Ceiling: 14000 feet AGL
Clouds: few clouds at 500 feet AGL
scattered clouds at 1600 feet AGL
overcast cloud deck at 14000 feet AGL
Weather: -RA  (light rain)

METAR text: WBGB 230100Z VRB02KT 8000 -RA FEW001 SCT014 OVC140 23/23 Q1013
Conditions at: WBGB (BINTULU/KALIMANT, MY) observed 0100 UTC 23 January 2019
Temperature: 23.0°C (73°F)
Dewpoint: 23.0°C (73°F) [RH = 100%]
Pressure (altimeter): 29.91 inches Hg (1013.0 mb)
Winds: variable direction winds at 2 MPH (2 knots; 1.0 m/s)
Visibility: 5 miles ( 8 km)
Ceiling: 14000 feet AGL
Clouds: few clouds at 100 feet AGL
scattered clouds at 1400 feet AGL
overcast cloud deck at 14000 feet AGL
Weather: -RA  (light rain)

METAR text: WBGB 230000Z 00000KT 8000 -RA FEW001 SCT014 OVC140 23/23 Q1012
Conditions at: WBGB (BINTULU/KALIMANT, MY) observed 0000 UTC 23 January 2019
Temperature: 23.0°C (73°F)
Dewpoint: 23.0°C (73°F) [RH = 100%]
Pressure (altimeter): 29.88 inches Hg (1012.0 mb)
Winds: calm
Visibility: 5 miles ( 8 km)
Ceiling: 14000 feet AGL
Clouds: few clouds at 100 feet AGL
scattered clouds at 1400 feet AGL
overcast cloud deck at 14000 feet AGL
Weather: -RA  (light rain)

METAR text: WBGB 222300Z VRB02KT 4000 -RA FEW001 SCT014 OVC140 23/23 Q1011
Conditions at: WBGB (BINTULU/KALIMANT, MY) observed 2300 UTC 22 January 2019
Temperature: 23.0°C (73°F)
Dewpoint: 23.0°C (73°F) [RH = 100%]
Pressure (altimeter): 29.85 inches Hg (1011.0 mb)
Winds: variable direction winds at 2 MPH (2 knots; 1.0 m/s)
Visibility: 2.49 miles (4.01 km)
Ceiling: 14000 feet AGL
Clouds: few clouds at 100 feet AGL
scattered clouds at 1400 feet AGL
overcast cloud deck at 14000 feet AGL
Weather: -RA  (light rain)

METAR text: WBGB 222200Z 00000KT 6000 -RA FEW002 SCT014 OVC140 23/23 Q1011
Conditions at: WBGB (BINTULU/KALIMANT, MY) observed 2200 UTC 22 January 2019
Temperature: 23.0°C (73°F)
Dewpoint: 23.0°C (73°F) [RH = 100%]
Pressure (altimeter): 29.85 inches Hg (1011.0 mb)
Winds: calm
Visibility: 4 miles ( 6 km)
Ceiling: 14000 feet AGL
Clouds: few clouds at 200 feet AGL
scattered clouds at 1400 feet AGL
overcast cloud deck at 14000 feet AGL
Weather: -RA  (light rain)

METAR text: WBGB 222100Z VRB02KT 9999 -RA FEW004 SCT014 OVC140 23/23 Q1011
Conditions at: WBGB (BINTULU/KALIMANT, MY) observed 2100 UTC 22 January 2019
Temperature: 23.0°C (73°F)
Dewpoint: 23.0°C (73°F) [RH = 100%]
Pressure (altimeter): 29.85 inches Hg (1011.0 mb)
Winds: variable direction winds at 2 MPH (2 knots; 1.0 m/s)
Visibility: 6 or more miles (10+ km)
Ceiling: 14000 feet AGL
Clouds: few clouds at 400 feet AGL
scattered clouds at 1400 feet AGL
overcast cloud deck at 14000 feet AGL
Weather: -RA  (light rain)

METAR text: WBGB 222000Z 03006KT 330V080 9999 -RA FEW003 SCT014 OVC140 24/23 Q1010
Conditions at: WBGB (BINTULU/KALIMANT, MY) observed 2000 UTC 22 January 2019
Temperature: 24.0°C (75°F)
Dewpoint: 23.0°C (73°F) [RH = 94%]
Pressure (altimeter): 29.82 inches Hg (1010.0 mb)
Winds: from the NNE (30 degrees) at 7 MPH (6 knots; 3.1 m/s)
Visibility: 6 or more miles (10+ km)
Ceiling: 14000 feet AGL
Clouds: few clouds at 300 feet AGL
scattered clouds at 1400 feet AGL
overcast cloud deck at 14000 feet AGL
Weather: -RA  (light rain)

METAR text: WBGB 221900Z 00000KT 8000 -RA FEW003 SCT014 OVC140 24/23 Q1010
Conditions at: WBGB (BINTULU/KALIMANT, MY) observed 1900 UTC 22 January 2019
Temperature: 24.0°C (75°F)
Dewpoint: 23.0°C (73°F) [RH = 94%]
Pressure (altimeter): 29.82 inches Hg (1010.0 mb)
Winds: calm
Visibility: 5 miles ( 8 km)
Ceiling: 14000 feet AGL
Clouds: few clouds at 300 feet AGL
scattered clouds at 1400 feet AGL
overcast cloud deck at 14000 feet AGL
Weather: -RA  (light rain)

METAR text: WBGB 221800Z 25003KT 200V300 8000 -RA FEW002 SCT014 OVC140 24/24 Q1011
Conditions at: WBGB (BINTULU/KALIMANT, MY) observed 1800 UTC 22 January 2019
Temperature: 24.0°C (75°F)
Dewpoint: 24.0°C (75°F) [RH = 100%]
Pressure (altimeter): 29.85 inches Hg (1011.0 mb)
Winds: from the WSW (250 degrees) at 3 MPH (3 knots; 1.5 m/s)
Visibility: 5 miles ( 8 km)
Ceiling: 14000 feet AGL
Clouds: few clouds at 200 feet AGL
scattered clouds at 1400 feet AGL
overcast cloud deck at 14000 feet AGL
Weather: -RA  (light rain)

METAR text: WBGB 221700Z 01004KT 330V060 5000 -RA FEW002 SCT016 OVC140 24/24 Q1012
Conditions at: WBGB (BINTULU/KALIMANT, MY) observed 1700 UTC 22 January 2019
Temperature: 24.0°C (75°F)
Dewpoint: 24.0°C (75°F) [RH = 100%]
Pressure (altimeter): 29.88 inches Hg (1012.0 mb)
Winds: from the N (10 degrees) at 5 MPH (4 knots; 2.1 m/s)
Visibility: 3 miles ( 5 km)
Ceiling: 14000 feet AGL
Clouds: few clouds at 200 feet AGL
scattered clouds at 1600 feet AGL
overcast cloud deck at 14000 feet AGL
Weather: -RA  (light rain)

METAR text: WBGB 221600Z 00000KT 5000 -RA FEW001 SCT014 OVC140 24/24 Q1012
Conditions at: WBGB (BINTULU/KALIMANT, MY) observed 1600 UTC 22 January 2019
Temperature: 24.0°C (75°F)
Dewpoint: 24.0°C (75°F) [RH = 100%]
Pressure (altimeter): 29.88 inches Hg (1012.0 mb)
Winds: calm
Visibility: 3 miles ( 5 km)
Ceiling: 14000 feet AGL
Clouds: few clouds at 100 feet AGL
scattered clouds at 1400 feet AGL
overcast cloud deck at 14000 feet AGL
Weather: -RA  (light rain)

METAR text: WBGB 221500Z VRB03KT 5000 -RA FEW002 SCT014 OVC140 24/24 Q1012 RERA
Conditions at: WBGB (BINTULU/KALIMANT, MY) observed 1500 UTC 22 January 2019
Temperature: 24.0°C (75°F)
Dewpoint: 24.0°C (75°F) [RH = 100%]
Pressure (altimeter): 29.88 inches Hg (1012.0 mb)
Winds: variable direction winds at 3 MPH (3 knots; 1.5 m/s)
Visibility: 3 miles ( 5 km)
Ceiling: 14000 feet AGL
Clouds: few clouds at 200 feet AGL
scattered clouds at 1400 feet AGL
overcast cloud deck at 14000 feet AGL
Weather: -RA  (light rain)

METAR text: WBGB 221400Z 02005KT 280V080 3000 RA FEW003 SCT014 OVC140 24/24 Q1012
Conditions at: WBGB (BINTULU/KALIMANT, MY) observed 1400 UTC 22 January 2019
Temperature: 24.0°C (75°F)
Dewpoint: 24.0°C (75°F) [RH = 100%]
Pressure (altimeter): 29.88 inches Hg (1012.0 mb)
Winds: from the NNE (20 degrees) at 6 MPH (5 knots; 2.6 m/s)
Visibility: 1.86 miles (2.99 km)
Ceiling: 14000 feet AGL
Clouds: few clouds at 300 feet AGL
scattered clouds at 1400 feet AGL
overcast cloud deck at 14000 feet AGL
Weather: RA  (moderate rain)

METAR text: WBGB 221300Z 02006KT 330V100 6000 -RA FEW003 SCT014 OVC140 25/24 Q1011
Conditions at: WBGB (BINTULU/KALIMANT, MY) observed 1300 UTC 22 January 2019
Temperature: 25.0°C (77°F)
Dewpoint: 24.0°C (75°F) [RH = 94%]
Pressure (altimeter): 29.85 inches Hg (1011.0 mb)
Winds: from the NNE (20 degrees) at 7 MPH (6 knots; 3.1 m/s)
Visibility: 4 miles ( 6 km)
Ceiling: 14000 feet AGL
Clouds: few clouds at 300 feet AGL
scattered clouds at 1400 feet AGL
overcast cloud deck at 14000 feet AGL
Weather: -RA  (light rain)

METAR text: WBGB 221200Z VRB02KT 8000 -RA FEW003 SCT014 OVC140 24/24 Q1011
Conditions at: WBGB (BINTULU/KALIMANT, MY) observed 1200 UTC 22 January 2019
Temperature: 24.0°C (75°F)
Dewpoint: 24.0°C (75°F) [RH = 100%]
Pressure (altimeter): 29.85 inches Hg (1011.0 mb)
Winds: variable direction winds at 2 MPH (2 knots; 1.0 m/s)
Visibility: 5 miles ( 8 km)
Ceiling: 14000 feet AGL
Clouds: few clouds at 300 feet AGL
scattered clouds at 1400 feet AGL
overcast cloud deck at 14000 feet AGL
Weather: -RA  (light rain)

METAR text: WBGB 221100Z 00000KT 8000 -RA FEW003 SCT012 OVC140 24/24 Q1010
Conditions at: WBGB (BINTULU/KALIMANT, MY) observed 1100 UTC 22 January 2019
Temperature: 24.0°C (75°F)
Dewpoint: 24.0°C (75°F) [RH = 100%]
Pressure (altimeter): 29.82 inches Hg (1010.0 mb)
Winds: calm
Visibility: 5 miles ( 8 km)
Ceiling: 14000 feet AGL
Clouds: few clouds at 300 feet AGL
scattered clouds at 1200 feet AGL
overcast cloud deck at 14000 feet AGL
Weather: -RA  (light rain)

METAR text: WBGB 221000Z 00000KT 9999 -RA FEW004 SCT012 OVC140 24/24 Q1010
Conditions at: WBGB (BINTULU/KALIMANT, MY) observed 1000 UTC 22 January 2019
Temperature: 24.0°C (75°F)
Dewpoint: 24.0°C (75°F) [RH = 100%]
Pressure (altimeter): 29.82 inches Hg (1010.0 mb)
Winds: calm
Visibility: 6 or more miles (10+ km)
Ceiling: 14000 feet AGL
Clouds: few clouds at 400 feet AGL
scattered clouds at 1200 feet AGL
overcast cloud deck at 14000 feet AGL
Weather: -RA  (light rain)

METAR text: WBGB 220900Z VRB02KT 9999 -RA FEW004 SCT012 OVC140 25/24 Q1009
Conditions at: WBGB (BINTULU/KALIMANT, MY) observed 0900 UTC 22 January 2019
Temperature: 25.0°C (77°F)
Dewpoint: 24.0°C (75°F) [RH = 94%]
Pressure (altimeter): 29.79 inches Hg (1009.0 mb)
Winds: variable direction winds at 2 MPH (2 knots; 1.0 m/s)
Visibility: 6 or more miles (10+ km)
Ceiling: 14000 feet AGL
Clouds: few clouds at 400 feet AGL
scattered clouds at 1200 feet AGL
overcast cloud deck at 14000 feet AGL
Weather: -RA  (light rain)

METAR text: WBGB 220800Z 04004KT 340V090 9999 -RA FEW004 SCT012 OVC140 25/24 Q1009
Conditions at: WBGB (BINTULU/KALIMANT, MY) observed 0800 UTC 22 January 2019
Temperature: 25.0°C (77°F)
Dewpoint: 24.0°C (75°F) [RH = 94%]
Pressure (altimeter): 29.79 inches Hg (1009.0 mb)
Winds: from the NE (40 degrees) at 5 MPH (4 knots; 2.1 m/s)
Visibility: 6 or more miles (10+ km)
Ceiling: 14000 feet AGL
Clouds: few clouds at 400 feet AGL
scattered clouds at 1200 feet AGL
overcast cloud deck at 14000 feet AGL
Weather: -RA  (light rain)

METAR text: WBGB 220700Z 02005KT 320V070 5000 -RA FEW005 BKN012 OVC140 24/24 Q1010 RERA
Conditions at: WBGB (BINTULU/KALIMANT, MY) observed 0700 UTC 22 January 2019
Temperature: 24.0°C (75°F)
Dewpoint: 24.0°C (75°F) [RH = 100%]
Pressure (altimeter): 29.82 inches Hg (1010.0 mb)
Winds: from the NNE (20 degrees) at 6 MPH (5 knots; 2.6 m/s)
Visibility: 3 miles ( 5 km)
Ceiling: 1200 feet AGL
Clouds: few clouds at 500 feet AGL
broken clouds at 1200 feet AGL
overcast cloud deck at 14000 feet AGL
Weather: -RA  (light rain)

METAR text: WBGB 220600Z 02005KT 310V090 0400 +SHRA BKN014 BKN150 25/24 Q1010
Conditions at: WBGB (BINTULU/KALIMANT, MY) observed 0600 UTC 22 January 2019
Temperature: 25.0°C (77°F)
Dewpoint: 24.0°C (75°F) [RH = 94%]
Pressure (altimeter): 29.82 inches Hg (1010.0 mb)
Winds: from the NNE (20 degrees) at 6 MPH (5 knots; 2.6 m/s)
Visibility: 0.25 miles (0.40 km)
Ceiling: 1400 feet AGL
Clouds: broken clouds at 1400 feet AGL
broken clouds at 15000 feet AGL
Weather: +SHRA  (heavy rain showers)

METAR text: WBGB 220500Z 32008KT 240V040 9999 BKN014 BKN150 29/25 Q1010
Conditions at: WBGB (BINTULU/KALIMANT, MY) observed 0500 UTC 22 January 2019
Temperature: 29.0°C (84°F)
Dewpoint: 25.0°C (77°F) [RH = 79%]
Pressure (altimeter): 29.82 inches Hg (1010.0 mb)
Winds: from the NW (320 degrees) at 9 MPH (8 knots; 4.1 m/s)
Visibility: 6 or more miles (10+ km)
Ceiling: 1400 feet AGL
Clouds: broken clouds at 1400 feet AGL
broken clouds at 15000 feet AGL
Weather: no significant weather observed at this time

METAR text: WBGB 220400Z 33007KT 250V050 9999 SCT012 FEW015CB SCT150 BKN300 30/25 Q1011
Conditions at: WBGB (BINTULU/KALIMANT, MY) observed 0400 UTC 22 January 2019
Temperature: 30.0°C (86°F)
Dewpoint: 25.0°C (77°F) [RH = 75%]
Pressure (altimeter): 29.85 inches Hg (1011.0 mb)
Winds: from the NNW (330 degrees) at 8 MPH (7 knots; 3.6 m/s)
Visibility: 6 or more miles (10+ km)
Ceiling: 30000 feet AGL
Clouds: scattered clouds at 1200 feet AGL
few clouds at 1500 feet AGL
scattered clouds at 15000 feet AGL
broken clouds at 30000 feet AGL
Weather: no significant weather observed at this time

METAR text: WBGB 220300Z 01005KT 290V070 9999 SCT012 FEW015CB BKN150 29/25 Q1011
Conditions at: WBGB (BINTULU/KALIMANT, MY) observed 0300 UTC 22 January 2019
Temperature: 29.0°C (84°F)
Dewpoint: 25.0°C (77°F) [RH = 79%]
Pressure (altimeter): 29.85 inches Hg (1011.0 mb)
Winds: from the N (10 degrees) at 6 MPH (5 knots; 2.6 m/s)
Visibility: 6 or more miles (10+ km)
Ceiling: 15000 feet AGL
Clouds: scattered clouds at 1200 feet AGL
few clouds at 1500 feet AGL
broken clouds at 15000 feet AGL
Weather: no significant weather observed at this time

METAR text: WBGB 220200Z 08003KT 030V140 9999 SCT012 BKN150 27/25 Q1011
Conditions at: WBGB (BINTULU/KALIMANT, MY) observed 0200 UTC 22 January 2019
Temperature: 27.0°C (81°F)
Dewpoint: 25.0°C (77°F) [RH = 89%]
Pressure (altimeter): 29.85 inches Hg (1011.0 mb)
Winds: from the E (80 degrees) at 3 MPH (3 knots; 1.5 m/s)
Visibility: 6 or more miles (10+ km)
Ceiling: 15000 feet AGL
Clouds: scattered clouds at 1200 feet AGL
broken clouds at 15000 feet AGL
Weather: no significant weather observed at this time

Forecast for: WBGB (BINTULU/KALIMANT, MY)
Text: TAF WBGB 231100Z 2312/2412 02005KT 9999 SCT014
Forecast period: 1200 UTC 23 January 2019 to 1200 UTC 24 January 2019
Forecast type: FROM: standard forecast or significant change
Winds: from the NNE (20 degrees) at 6 MPH (5 knots; 2.6 m/s)
Visibility: 6 or more miles 10+ km)
Ceiling: at least 12,000 feet AGL
Clouds: scattered clouds at 1400 feet AGL
Weather: no significant weather forecast for this period
Text: TEMPO 2312/2315 5000 RA FEW003
Forecast period: 1200 to 1500 UTC 23 January 2019
Forecast type: TEMPORARY: The following changes expected for less than half the time period
Visibility: 3 miles (5 km)
Ceiling: at least 12,000 feet AGL
Clouds: few clouds at 300 feet AGL
Weather: RA  (moderate rain)